Time;durP1;ratioP1;P1;durP2;ratioP2;P2;SDS_P1;SDS_P2;PMS_P1;PMS_P2;Temp;Humidity;BMP_temperature;BMP_pressure;BME280_temperature;BME280_humidity;BME280_pressure;Samples;Min_cycle;Max_cycle;Signal;HPM_P1;HPM_P2
2023/07/05 00:00:07;;;;;;;8.13;4.45;;;;;;;16.29;100.00;99882.03;690199;28;891;-58
2023/07/05 00:00:28;;;;;;;6.40;4.22;;;;;;;16.27;100.00;99875.97;688712;28;954;-58
2023/07/05 00:00:48;;;;;;;6.97;4.03;;;;;;;16.26;100.00;99876.91;690690;28;1493;-59
2023/07/05 00:01:11;;;;;;;7.50;4.13;;;;;;;16.29;100.00;99878.56;689977;28;4436;-58
2023/07/05 00:01:31;;;;;;;7.47;4.05;;;;;;;16.29;100.00;99887.31;689060;28;1623;-59
2023/07/05 00:01:52;;;;;;;6.73;3.97;;;;;;;16.31;100.00;99887.25;690418;28;931;-59
2023/07/05 00:02:12;;;;;;;6.77;4.00;;;;;;;16.33;100.00;99881.00;690254;28;925;-59
2023/07/05 00:02:32;;;;;;;7.57;4.00;;;;;;;16.36;100.00;99881.81;689369;28;1702;-59
2023/07/05 00:02:54;;;;;;;7.80;4.03;;;;;;;16.34;100.00;99888.00;690727;28;844;-58
2023/07/05 00:03:14;;;;;;;7.28;4.18;;;;;;;16.34;100.00;99893.25;690541;28;1014;-59
2023/07/05 00:03:35;;;;;;;6.70;4.00;;;;;;;16.32;100.00;99895.13;689656;28;1432;-59
2023/07/05 00:03:55;;;;;;;7.88;4.13;;;;;;;16.34;100.00;99889.78;690379;28;845;-59
2023/07/05 00:04:16;;;;;;;8.10;4.20;;;;;;;16.37;100.00;99888.81;688586;28;4445;-59
2023/07/05 00:04:36;;;;;;;8.10;4.30;;;;;;;16.37;100.00;99887.00;684711;28;1793;-59
2023/07/05 00:04:57;;;;;;;7.30;4.37;;;;;;;16.38;100.00;99882.59;687942;28;904;-59
2023/07/05 00:05:17;;;;;;;8.30;4.05;;;;;;;16.40;100.00;99878.13;687596;28;893;-59
2023/07/05 00:05:38;;;;;;;8.10;4.27;;;;;;;16.41;100.00;99887.75;686236;28;1434;-60
2023/07/05 00:06:03;;;;;;;6.88;3.92;;;;;;;16.42;100.00;99890.31;687352;28;1313;-59
2023/07/05 00:06:23;;;;;;;8.45;3.80;;;;;;;16.42;100.00;99887.69;687090;28;1483;-59
2023/07/05 00:06:44;;;;;;;6.40;3.80;;;;;;;16.42;100.00;99887.69;690452;28;1052;-59
2023/07/05 00:07:04;;;;;;;6.23;3.77;;;;;;;16.41;100.00;99882.47;690699;28;1934;-59
2023/07/05 00:07:25;;;;;;;6.13;3.80;;;;;;;16.43;100.00;99886.75;687594;28;4315;-59
2023/07/05 00:07:45;;;;;;;7.03;4.05;;;;;;;16.46;100.00;99880.47;687865;28;970;-59
2023/07/05 00:08:06;;;;;;;6.43;3.80;;;;;;;16.43;100.00;99877.97;688307;28;825;-60
2023/07/05 00:08:26;;;;;;;6.90;3.90;;;;;;;16.54;100.00;99878.38;688430;28;1542;-61
2023/07/05 00:08:46;;;;;;;7.77;3.60;;;;;;;16.57;100.00;99878.25;688740;28;864;-61
2023/07/05 00:09:07;;;;;;;6.63;3.88;;;;;;;16.62;100.00;99876.28;686544;28;1690;-60
2023/07/05 00:09:27;;;;;;;7.77;4.10;;;;;;;16.60;100.00;99867.59;685216;28;1784;-60
2023/07/05 00:09:48;;;;;;;7.47;3.83;;;;;;;16.56;100.00;99871.28;690502;28;912;-60
2023/07/05 00:10:10;;;;;;;6.60;3.70;;;;;;;16.57;100.00;99866.84;689650;28;4312;-60
2023/07/05 00:10:30;;;;;;;7.60;4.00;;;;;;;16.56;100.00;99870.41;688270;28;1532;-59
2023/07/05 00:11:01;;;;;;;6.85;3.80;;;;;;;16.54;100.00;99862.56;690658;28;777;-60
2023/07/05 00:11:21;;;;;;;6.70;3.95;;;;;;;16.50;100.00;99860.97;689242;28;1551;-60
2023/07/05 00:11:42;;;;;;;6.82;3.90;;;;;;;16.45;100.00;99857.69;690076;28;848;-59
2023/07/05 00:12:05;;;;;;;7.83;4.00;;;;;;;16.42;100.00;99853.41;690370;28;1437;-59
2023/07/05 00:12:26;;;;;;;6.72;4.00;;;;;;;16.46;100.00;99854.09;688902;28;1746;-60
2023/07/05 00:12:46;;;;;;;6.43;3.85;;;;;;;16.45;100.00;99855.06;690120;28;1105;-59
2023/07/05 00:13:07;;;;;;;5.88;3.67;;;;;;;16.40;100.00;99852.59;689828;28;4522;-59
2023/07/05 00:13:27;;;;;;;6.43;3.90;;;;;;;16.34;100.00;99851.06;688929;28;903;-59
2023/07/05 00:13:47;;;;;;;7.43;4.03;;;;;;;16.40;100.00;99857.00;689911;28;1476;-59
2023/07/05 00:14:08;;;;;;;7.90;4.00;;;;;;;16.38;100.00;99853.56;690581;28;997;-59
2023/07/05 00:14:29;;;;;;;6.77;3.60;;;;;;;16.33;100.00;99849.34;688622;28;1589;-59
2023/07/05 00:14:49;;;;;;;6.00;3.50;;;;;;;16.31;100.00;99853.84;690507;28;939;-59
2023/07/05 00:15:10;;;;;;;6.53;3.90;;;;;;;16.26;100.00;99847.03;690723;28;856;-59
2023/07/05 00:15:31;;;;;;;7.28;3.80;;;;;;;16.17;100.00;99853.53;689510;28;1714;-59
2023/07/05 00:15:51;;;;;;;7.10;3.60;;;;;;;16.16;100.00;99846.56;690242;28;848;-60
2023/07/05 00:16:12;;;;;;;6.77;3.80;;;;;;;16.28;100.00;99843.41;690208;28;4400;-59
2023/07/05 00:16:32;;;;;;;7.45;3.72;;;;;;;16.32;100.00;99842.38;688601;28;1448;-59
2023/07/05 00:16:55;;;;;;;7.07;3.63;;;;;;;16.33;100.00;99849.34;690382;28;1536;-59
2023/07/05 00:17:18;;;;;;;6.60;3.50;;;;;;;16.34;100.00;99847.59;689898;28;876;-59
2023/07/05 00:17:38;;;;;;;6.28;3.60;;;;;;;16.42;100.00;99847.25;689303;28;1529;-59
2023/07/05 00:17:59;;;;;;;6.00;3.50;;;;;;;16.46;100.00;99846.19;690243;28;980;-59
2023/07/05 00:18:19;;;;;;;5.82;3.38;;;;;;;16.45;100.00;99841.88;690817;28;849;-58
2023/07/05 00:18:41;;;;;;;7.53;3.90;;;;;;;16.39;100.00;99842.94;688742;28;1508;-58
2023/07/05 00:19:01;;;;;;;5.95;3.70;;;;;;;16.34;100.00;99847.59;690016;28;900;-58
2023/07/05 00:19:21;;;;;;;5.50;3.40;;;;;;;16.31;100.00;99843.28;685880;28;4438;-59
2023/07/05 00:19:42;;;;;;;6.38;3.72;;;;;;;16.30;100.00;99838.09;687065;28;3270;-58
2023/07/05 00:20:04;;;;;;;6.97;4.17;;;;;;;16.31;100.00;99840.66;687271;28;948;-58
2023/07/05 00:20:25;;;;;;;6.55;3.70;;;;;;;16.34;100.00;99837.88;686829;28;1801;-58
2023/07/05 00:20:45;;;;;;;7.03;3.73;;;;;;;16.32;100.00;99830.94;690071;28;872;-59
2023/07/05 00:21:07;;;;;;;5.97;3.47;;;;;;;16.30;100.00;99833.66;690173;28;892;-58
2023/07/05 00:21:27;;;;;;;7.65;3.78;;;;;;;16.32;100.00;99831.81;689011;28;1496;-58
2023/07/05 00:21:48;;;;;;;6.27;3.43;;;;;;;16.31;100.00;99832.75;690339;28;1472;-58
2023/07/05 00:22:08;;;;;;;7.20;3.50;;;;;;;16.33;100.00;99837.94;689377;28;4389;-58
2023/07/05 00:22:28;;;;;;;8.65;3.70;;;;;;;16.31;100.00;99824.81;689145;28;1464;-59
2023/07/05 00:22:49;;;;;;;5.90;3.83;;;;;;;16.27;100.00;99831.16;689956;28;865;-58
2023/07/05 00:23:10;;;;;;;5.57;3.70;;;;;;;16.26;100.00;99824.16;687006;28;1273;-58
2023/07/05 00:23:33;;;;;;;6.30;3.50;;;;;;;16.25;100.00;99826.84;689105;28;1551;-58
2023/07/05 00:23:53;;;;;;;6.03;3.50;;;;;;;16.22;100.00;99830.47;689848;28;1011;-58
2023/07/05 00:24:16;;;;;;;6.13;3.38;;;;;;;16.21;100.00;99828.75;690090;28;853;-59
2023/07/05 00:24:36;;;;;;;7.95;3.75;;;;;;;16.22;100.00;99830.47;689096;28;1559;-59
2023/07/05 00:24:57;;;;;;;5.82;3.33;;;;;;;16.21;100.00;99828.75;690191;28;1448;-58
2023/07/05 00:25:17;;;;;;;6.50;3.50;;;;;;;16.21;100.00;99828.75;689736;28;4616;-58
2023/07/05 00:25:38;;;;;;;6.60;4.00;;;;;;;16.24;100.00;99823.38;689021;28;1572;-58
2023/07/05 00:25:58;;;;;;;5.83;3.50;;;;;;;16.26;100.00;99825.94;686461;28;900;-58
2023/07/05 00:26:19;;;;;;;5.65;3.50;;;;;;;16.25;100.00;99826.84;686110;28;1339;-59
2023/07/05 00:26:39;;;;;;;6.38;3.60;;;;;;;16.25;100.00;99822.44;685907;28;1515;-58
2023/07/05 00:27:00;;;;;;;6.37;3.60;;;;;;;16.25;100.00;99821.59;687569;28;1981;-58
2023/07/05 00:27:24;;;;;;;5.60;3.40;;;;;;;16.22;100.00;99819.94;689950;28;2898;-59
2023/07/05 00:27:44;;;;;;;5.45;3.45;;;;;;;16.23;100.00;99831.34;690512;28;900;-58
2023/07/05 00:28:05;;;;;;;5.68;3.53;;;;;;;16.20;100.00;99816.50;690224;28;1287;-58
2023/07/05 00:28:25;;;;;;;6.20;3.40;;;;;;;16.27;100.00;99817.97;688113;28;4259;-58
2023/07/05 00:28:46;;;;;;;6.20;3.40;;;;;;;16.31;100.00;99824.81;690296;28;833;-58
2023/07/05 00:29:06;;;;;;;5.65;3.20;;;;;;;16.30;100.00;99827.53;687291;28;920;-58
2023/07/05 00:29:27;;;;;;;5.70;3.40;;;;;;;16.29;100.00;99820.53;683435;28;1580;-59
2023/07/05 00:29:47;;;;;;;5.97;3.55;;;;;;;16.26;100.00;99820.66;682153;28;1379;-58
2023/07/05 00:30:08;;;;;;;6.57;3.17;;;;;;;16.29;100.00;99820.53;685090;28;900;-58
2023/07/05 00:30:29;;;;;;;5.57;3.13;;;;;;;16.29;100.00;99820.53;680269;28;1524;-58
2023/07/05 00:30:49;;;;;;;6.72;3.50;;;;;;;16.25;100.00;99821.59;678726;29;1139;-58
2023/07/05 00:31:10;;;;;;;6.20;3.53;;;;;;;16.32;100.00;99820.41;681836;28;4617;-59
2023/07/05 00:31:30;;;;;;;6.63;3.70;;;;;;;16.33;100.00;99822.13;683578;28;1657;-59
2023/07/05 00:31:52;;;;;;;6.00;3.30;;;;;;;16.30;100.00;99817.81;687521;28;903;-59
2023/07/05 00:32:13;;;;;;;5.70;3.80;;;;;;;16.25;100.00;99811.88;687925;28;895;-60
2023/07/05 00:32:33;;;;;;;6.43;3.57;;;;;;;16.28;100.00;99817.06;685117;28;1702;-60
2023/07/05 00:32:53;;;;;;;7.33;3.50;;;;;;;16.29;100.00;99815.25;687802;28;880;-60
2023/07/05 00:33:14;;;;;;;7.63;3.67;;;;;;;16.29;100.00;99821.38;684023;28;1715;-60
2023/07/05 00:33:35;;;;;;;5.45;3.40;;;;;;;16.26;100.00;99816.25;683772;28;1564;-60
2023/07/05 00:33:55;;;;;;;5.37;3.33;;;;;;;16.29;100.00;99817.91;682227;29;806;-60
2023/07/05 00:34:15;;;;;;;5.90;3.70;;;;;;;16.29;100.00;99820.53;682000;28;4623;-60
2023/07/05 00:34:36;;;;;;;6.22;3.65;;;;;;;16.28;100.00;99814.41;683760;28;1879;-63
2023/07/05 00:34:56;;;;;;;5.83;3.20;;;;;;;16.26;100.00;99816.25;687430;28;1014;-60
2023/07/05 00:35:16;;;;;;;6.60;3.33;;;;;;;16.29;100.00;99825.81;690018;28;862;-60
2023/07/05 00:35:46;;;;;;;7.03;3.23;;;;;;;16.26;100.00;99816.25;685986;28;1671;-60
2023/07/05 00:36:07;;;;;;;5.35;3.40;;;;;;;16.24;100.00;99822.50;689844;28;1588;-60
2023/07/05 00:36:27;;;;;;;6.27;3.23;;;;;;;16.22;100.00;99814.66;688590;28;1722;-60
2023/07/05 00:36:47;;;;;;;6.68;3.60;;;;;;;16.23;100.00;99811.09;689994;28;1347;-61
2023/07/05 00:37:08;;;;;;;5.50;3.17;;;;;;;16.23;100.00;99812.91;689858;28;4458;-59
2023/07/05 00:37:28;;;;;;;6.13;3.20;;;;;;;16.21;100.00;99815.56;686407;28;1536;-60
2023/07/05 00:37:49;;;;;;;5.67;3.40;;;;;;;16.22;100.00;99814.66;687022;28;1584;-60
2023/07/05 00:38:09;;;;;;;6.70;3.50;;;;;;;16.21;100.00;99812.94;685072;28;912;-60
2023/07/05 00:38:30;;;;;;;5.93;3.43;;;;;;;16.21;100.00;99812.94;681893;28;1617;-61
2023/07/05 00:38:50;;;;;;;6.40;3.50;;;;;;;16.24;100.00;99810.19;686099;28;851;-60
2023/07/05 00:39:10;;;;;;;6.27;3.60;;;;;;;16.28;100.00;99809.13;686935;28;992;-61
2023/07/05 00:39:31;;;;;;;5.83;3.40;;;;;;;16.34;100.00;99808.88;686596;28;1528;-60
2023/07/05 00:39:51;;;;;;;5.35;3.20;;;;;;;16.38;100.00;99806.97;687617;28;1478;-61
2023/07/05 00:40:12;;;;;;;4.93;3.20;;;;;;;16.34;100.00;99806.22;686746;28;5401;-61
2023/07/05 00:40:32;;;;;;;5.38;3.20;;;;;;;16.31;100.00;99809.00;683981;28;888;-60
2023/07/05 00:40:53;;;;;;;5.80;3.20;;;;;;;16.34;100.00;99808.88;682191;28;1206;-60
2023/07/05 00:41:13;;;;;;;6.20;3.33;;;;;;;16.37;100.00;99801.75;684814;28;1639;-61
2023/07/05 00:41:35;;;;;;;5.47;3.33;;;;;;;16.39;100.00;99805.19;685431;28;1470;-61
2023/07/05 00:41:55;;;;;;;4.97;3.33;;;;;;;16.40;100.00;99809.53;687270;28;1241;-61
2023/07/05 00:42:16;;;;;;;5.35;3.17;;;;;;;16.37;100.00;99804.41;684112;28;5230;-61
2023/07/05 00:42:36;;;;;;;5.23;3.20;;;;;;;16.37;100.00;99805.25;685795;28;1520;-60
2023/07/05 00:42:57;;;;;;;5.23;3.30;;;;;;;16.34;100.00;99806.22;682256;28;810;-60
2023/07/05 00:43:19;;;;;;;6.63;3.40;;;;;;;16.31;100.00;99809.00;681955;28;4436;-60
2023/07/05 00:43:46;;;;;;;6.63;3.20;;;;;;;16.42;100.00;99808.56;682892;28;1659;-61
2023/07/05 00:44:07;;;;;;;6.35;3.30;;;;;;;16.42;100.00;99810.31;683635;28;1236;-62
2023/07/05 00:44:27;;;;;;;6.20;3.33;;;;;;;16.38;100.00;99806.09;684732;28;1663;-62
2023/07/05 00:45:09;;;;;;;5.63;3.10;;;;;;;16.30;100.00;99802.00;688968;28;1050;-62
2023/07/05 00:45:53;;;;;;;5.63;3.28;;;;;;;16.29;100.00;99805.56;688971;28;1562;-61
2023/07/05 00:46:19;;;;;;;6.53;3.25;;;;;;;16.25;100.00;99803.97;689308;28;4365;-62
2023/07/05 00:46:45;;;;;;;5.60;3.22;;;;;;;16.23;100.00;99808.47;687845;28;1582;-62
2023/07/05 00:47:20;;;;;;;6.25;3.22;;;;;;;16.20;100.00;99803.31;687217;28;1967;-62
2023/07/05 00:47:42;;;;;;;5.35;3.13;;;;;;;16.23;100.00;99800.56;684724;28;2252;-60
2023/07/05 00:48:03;;;;;;;5.18;3.03;;;;;;;16.25;100.00;99805.75;686986;28;947;-61
2023/07/05 00:48:55;;;;;;;5.78;3.25;;;;;;;16.22;100.00;99800.63;685657;28;1760;-61
2023/07/05 00:49:20;;;;;;;5.82;3.30;;;;;;;16.19;100.00;99798.97;687871;28;4415;-62
2023/07/05 00:49:41;;;;;;;5.22;3.10;;;;;;;16.21;100.00;99797.09;685460;28;1587;-60
2023/07/05 00:50:20;;;;;;;4.78;3.13;;;;;;;16.21;100.00;99794.47;685953;28;949;-61
2023/07/05 00:50:45;;;;;;;6.15;3.20;;;;;;;16.19;100.00;99798.97;688556;28;1385;-61
2023/07/05 00:51:16;;;;;;;6.50;3.20;;;;;;;16.20;100.00;99791.91;687605;28;912;-61
2023/07/05 00:52:10;;;;;;;4.95;3.10;;;;;;;16.27;100.00;99796.88;688201;28;1603;-61
2023/07/05 00:52:30;;;;;;;4.75;2.90;;;;;;;16.25;100.00;99793.41;688084;28;4780;-61
2023/07/05 00:52:54;;;;;;;5.50;2.90;;;;;;;16.22;100.00;99790.06;688135;28;1174;-61
2023/07/05 00:53:16;;;;;;;6.38;3.00;;;;;;;16.21;100.00;99791.84;690363;28;966;-60
2023/07/05 00:53:37;;;;;;;5.70;2.90;;;;;;;16.21;100.00;99791.00;688892;28;1907;-61
2023/07/05 00:54:00;;;;;;;5.25;3.05;;;;;;;16.21;100.00;99788.34;689805;28;1504;-61
2023/07/05 00:54:31;;;;;;;6.05;3.10;;;;;;;16.18;100.00;99789.34;690468;28;940;-61
2023/07/05 00:54:55;;;;;;;6.18;3.30;;;;;;;16.15;100.00;99784.19;688692;28;1191;-61
2023/07/05 00:55:18;;;;;;;7.03;3.60;;;;;;;16.14;100.00;99795.66;688269;28;4476;-61
2023/07/05 00:55:44;;;;;;;5.63;3.17;;;;;;;16.10;100.00;99799.34;685666;28;1532;-62
2023/07/05 00:56:12;;;;;;;4.70;3.10;;;;;;;16.15;100.00;99792.09;684385;28;2156;-62
2023/07/05 00:56:50;;;;;;;5.43;2.92;;;;;;;16.14;100.00;99791.25;683618;28;1567;-61
2023/07/05 00:57:17;;;;;;;6.20;3.28;;;;;;;16.16;100.00;99788.56;687000;28;1459;-61
2023/07/05 00:57:39;;;;;;;4.90;2.92;;;;;;;16.15;100.00;99786.84;685263;28;1614;-61
2023/07/05 00:58:02;;;;;;;5.82;3.00;;;;;;;16.16;100.00;99783.28;684171;28;1189;-61
2023/07/05 00:58:23;;;;;;;7.28;3.17;;;;;;;16.14;100.00;99783.34;686860;28;4360;-62
2023/07/05 00:58:45;;;;;;;5.82;2.88;;;;;;;16.13;100.00;99784.25;684155;28;1418;-62
2023/07/05 00:59:09;;;;;;;5.55;3.00;;;;;;;16.13;100.00;99788.66;683606;28;1217;-62
2023/07/05 00:59:34;;;;;;;5.95;3.05;;;;;;;16.11;100.00;99778.19;680975;28;1315;-62
2023/07/05 01:00:01;;;;;;;6.60;3.20;;;;;;;16.15;100.00;99784.19;684399;28;818;-62
2023/07/05 01:00:22;;;;;;;6.05;3.05;;;;;;;16.19;100.00;99788.41;687174;28;1108;-62
2023/07/05 01:00:43;;;;;;;5.82;3.05;;;;;;;16.18;100.00;99784.06;688531;28;1803;-62
2023/07/05 01:01:04;;;;;;;5.30;3.20;;;;;;;16.16;100.00;99783.28;687132;28;1003;-61
2023/07/05 01:01:27;;;;;;;5.20;3.10;;;;;;;16.15;100.00;99782.41;688205;28;4742;-62
2023/07/05 01:01:48;;;;;;;5.80;3.00;;;;;;;16.14;100.00;99788.63;689970;28;843;-62
2023/07/05 01:02:09;;;;;;;5.22;3.00;;;;;;;16.17;100.00;99780.56;687167;28;829;-62
2023/07/05 01:02:30;;;;;;;4.97;2.92;;;;;;;16.18;100.00;99784.06;685820;28;1595;-62
2023/07/05 01:02:56;;;;;;;5.53;3.15;;;;;;;16.19;100.00;99783.16;687074;28;905;-62
2023/07/05 01:03:21;;;;;;;5.25;3.10;;;;;;;16.27;100.00;99788.97;684717;28;1427;-62
2023/07/05 01:03:43;;;;;;;6.65;3.25;;;;;;;16.31;100.00;99779.13;685854;28;1461;-62
2023/07/05 01:04:04;;;;;;;5.70;3.35;;;;;;;16.36;100.00;99784.22;684530;28;1964;-62
2023/07/05 01:04:24;;;;;;;5.45;2.95;;;;;;;16.38;100.00;99775.31;684719;28;4390;-61
2023/07/05 01:04:45;;;;;;;5.45;2.90;;;;;;;16.34;100.00;99785.13;684938;28;1527;-62
2023/07/05 01:05:08;;;;;;;6.57;3.13;;;;;;;16.30;100.00;99773.00;684107;28;818;-62
2023/07/05 01:05:30;;;;;;;5.07;2.90;;;;;;;16.33;100.00;99780.75;681648;28;1600;-62
2023/07/05 01:05:52;;;;;;;5.07;2.90;;;;;;;16.35;100.00;99775.41;685461;28;1532;-62
2023/07/05 01:06:14;;;;;;;5.57;3.00;;;;;;;16.39;100.00;99776.16;687084;28;1189;-62
2023/07/05 01:06:35;;;;;;;5.32;2.90;;;;;;;16.29;100.00;99778.34;686243;28;1524;-61
2023/07/05 01:06:55;;;;;;;5.32;2.90;;;;;;;16.27;100.00;99775.78;686809;28;1618;-62
2023/07/05 01:07:15;;;;;;;5.10;2.77;;;;;;;16.23;100.00;99773.34;684634;28;4462;-62
2023/07/05 01:07:37;;;;;;;4.85;2.70;;;;;;;16.22;100.00;99769.81;684850;28;1627;-61
2023/07/05 01:07:57;;;;;;;5.80;2.90;;;;;;;16.20;100.00;99771.69;680664;28;1386;-61
2023/07/05 01:08:18;;;;;;;6.15;3.00;;;;;;;16.17;100.00;99770.03;684468;28;841;-61
2023/07/05 01:08:38;;;;;;;4.97;2.93;;;;;;;16.19;100.00;99767.31;680689;28;1392;-61
2023/07/05 01:09:01;;;;;;;5.28;2.70;;;;;;;16.18;100.00;99765.59;682004;28;1663;-61
2023/07/05 01:09:21;;;;;;;5.75;2.78;;;;;;;16.25;100.00;99764.41;682314;28;984;-61
2023/07/05 01:09:46;;;;;;;5.20;2.80;;;;;;;16.25;100.00;99769.69;683347;28;1735;-61
2023/07/05 01:10:16;;;;;;;5.10;2.92;;;;;;;16.24;100.00;99767.13;682454;28;5505;-61
2023/07/05 01:10:38;;;;;;;5.20;2.95;;;;;;;16.24;100.00;99769.75;683579;28;1772;-60
2023/07/05 01:11:09;;;;;;;6.80;3.08;;;;;;;16.27;100.00;99766.97;689511;28;991;-61
2023/07/05 01:11:51;;;;;;;4.95;2.72;;;;;;;16.25;100.00;99767.03;688516;28;1471;-61
2023/07/05 01:12:35;;;;;;;4.97;2.80;;;;;;;16.25;100.00;99769.69;690102;28;1508;-60
2023/07/05 01:13:04;;;;;;;5.15;2.80;;;;;;;16.24;100.00;99762.72;689702;28;1140;-60
2023/07/05 01:13:33;;;;;;;5.18;2.75;;;;;;;16.23;100.00;99763.63;688723;28;4530;-60
2023/07/05 01:14:13;;;;;;;5.57;2.83;;;;;;;16.20;100.00;99762.91;690010;28;1687;-60
2023/07/05 01:14:43;;;;;;;5.10;2.75;;;;;;;16.27;100.00;99765.22;688763;28;1576;-60
2023/07/05 01:15:18;;;;;;;4.68;2.78;;;;;;;16.24;100.00;99760.09;687485;28;1064;-59
2023/07/05 01:15:55;;;;;;;5.32;3.00;;;;;;;16.22;100.00;99767.19;686129;28;1461;-59
2023/07/05 01:16:48;;;;;;;5.68;2.80;;;;;;;16.18;100.00;99760.31;686148;28;4553;-59
2023/07/05 01:17:34;;;;;;;6.13;2.95;;;;;;;16.28;100.00;99772.22;681992;28;1091;-60
2023/07/05 01:18:10;;;;;;;5.32;2.60;;;;;;;16.31;100.00;99761.53;680153;28;1287;-61
2023/07/05 01:18:46;;;;;;;4.82;2.90;;;;;;;16.24;100.00;99767.13;678762;29;1416;-59
2023/07/05 01:19:25;;;;;;;6.07;2.92;;;;;;;16.20;100.00;99763.78;685759;28;4306;-59
2023/07/05 01:20:13;;;;;;;6.32;2.78;;;;;;;16.31;100.00;99766.81;686730;28;1148;-58
2023/07/05 01:21:01;;;;;;;5.82;2.88;;;;;;;16.27;100.00;99769.63;687897;28;1618;-58
2023/07/05 01:21:36;;;;;;;5.38;2.78;;;;;;;16.15;100.00;99771.00;690367;28;1050;-62
2023/07/05 01:22:04;;;;;;;5.68;3.08;;;;;;;16.08;100.00;99772.19;689915;28;1698;-59
2023/07/05 01:22:43;;;;;;;5.30;2.80;;;;;;;16.06;100.00;99768.75;684800;28;4453;-59
2023/07/05 01:23:26;;;;;;;5.47;2.85;;;;;;;16.03;100.00;99767.09;686054;28;1444;-59
2023/07/05 01:23:56;;;;;;;4.85;2.90;;;;;;;16.00;100.00;99770.75;684483;28;860;-59
2023/07/05 01:24:45;;;;;;;6.18;3.08;;;;;;;16.05;100.00;99767.03;686034;28;1268;-60
2023/07/05 01:25:18;;;;;;;4.60;2.50;;;;;;;16.11;100.00;99766.78;689090;28;1517;-59
2023/07/05 01:26:16;;;;;;;6.10;2.80;;;;;;;16.17;100.00;99763.88;689533;28;5076;-59
2023/07/05 01:26:50;;;;;;;5.18;2.70;;;;;;;16.29;100.00;99758.09;688257;28;1527;-59
2023/07/05 01:27:23;;;;;;;5.68;2.67;;;;;;;16.26;100.00;99752.09;689346;28;1930;-58
2023/07/05 01:27:54;;;;;;;5.10;2.60;;;;;;;16.23;100.00;99755.72;686472;28;1741;-58
2023/07/05 01:28:24;;;;;;;6.78;2.90;;;;;;;16.13;100.00;99760.53;687942;28;4545;-59
2023/07/05 01:29:18;;;;;;;4.70;2.50;;;;;;;16.15;100.00;99760.47;689699;28;841;-59
2023/07/05 01:29:45;;;;;;;5.15;2.60;;;;;;;16.22;100.00;99756.63;689052;28;1574;-61
2023/07/05 01:30:27;;;;;;;4.05;2.45;;;;;;;16.24;100.00;99761.84;690833;28;1015;-59
2023/07/05 01:31:02;;;;;;;6.20;2.67;;;;;;;16.21;100.00;99762.81;690263;28;849;-59
2023/07/05 01:32:01;;;;;;;5.80;2.75;;;;;;;16.17;100.00;99753.34;688821;28;4427;-59
2023/07/05 01:32:31;;;;;;;4.22;2.42;;;;;;;16.20;100.00;99753.22;688837;28;1735;-59
2023/07/05 01:32:56;;;;;;;4.75;2.60;;;;;;;16.19;100.00;99751.50;689799;28;991;-59
2023/07/05 01:33:31;;;;;;;5.80;2.83;;;;;;;16.15;100.00;99755.19;689150;28;1074;-59
2023/07/05 01:33:57;;;;;;;4.93;2.50;;;;;;;16.13;100.00;99754.38;688640;28;944;-59
2023/07/05 01:34:42;;;;;;;4.47;2.50;;;;;;;16.06;100.00;99742.38;689613;28;4548;-58
2023/07/05 01:35:08;;;;;;;4.97;2.50;;;;;;;16.05;100.00;99746.81;690088;28;1038;-60
2023/07/05 01:35:36;;;;;;;5.95;2.83;;;;;;;16.07;100.00;99746.75;685730;28;1573;-59
2023/07/05 01:35:58;;;;;;;5.07;2.80;;;;;;;16.10;100.00;99749.25;683826;28;1336;-59
2023/07/05 01:36:19;;;;;;;5.05;2.90;;;;;;;16.13;100.00;99751.75;687819;28;1599;-59
2023/07/05 01:36:41;;;;;;;5.05;2.65;;;;;;;16.11;100.00;99753.59;685211;28;1663;-59
2023/07/05 01:37:07;;;;;;;5.80;2.80;;;;;;;16.11;100.00;99750.97;687789;28;963;-58
2023/07/05 01:37:33;;;;;;;5.77;2.57;;;;;;;16.07;100.00;99747.59;686733;28;4942;-59
2023/07/05 01:37:53;;;;;;;6.32;2.67;;;;;;;16.05;100.00;99743.31;689278;28;1535;-59
2023/07/05 01:38:14;;;;;;;6.93;2.50;;;;;;;16.03;100.00;99745.16;690966;28;1125;-59
2023/07/05 01:38:34;;;;;;;5.03;2.53;;;;;;;16.04;100.00;99746.88;689534;28;1527;-59
2023/07/05 01:38:55;;;;;;;4.57;2.53;;;;;;;16.02;100.00;99749.59;689435;28;1509;-59
2023/07/05 01:39:15;;;;;;;4.90;2.80;;;;;;;16.03;100.00;99753.91;690971;28;1159;-59
2023/07/05 01:39:36;;;;;;;4.70;2.40;;;;;;;16.01;100.00;99747.88;686358;28;1668;-59
2023/07/05 01:39:56;;;;;;;4.95;2.80;;;;;;;16.05;100.00;99749.44;687216;28;1047;-59
2023/07/05 01:40:25;;;;;;;4.90;2.80;;;;;;;16.00;100.00;99744.38;687829;28;4459;-59
2023/07/05 01:40:50;;;;;;;4.43;2.58;;;;;;;16.03;100.00;99743.38;687658;28;917;-60
2023/07/05 01:41:11;;;;;;;5.95;2.90;;;;;;;16.07;100.00;99744.97;689266;28;1560;-60
2023/07/05 01:41:31;;;;;;;4.97;2.57;;;;;;;16.15;100.00;99745.50;688866;28;1453;-60
2023/07/05 01:41:52;;;;;;;4.45;2.40;;;;;;;16.21;100.00;99744.38;690295;28;960;-59
2023/07/05 01:42:12;;;;;;;4.33;2.50;;;;;;;16.14;100.00;99738.53;690064;28;5336;-59
2023/07/05 01:42:33;;;;;;;5.15;2.55;;;;;;;16.17;100.00;99741.03;686773;28;1505;-59
2023/07/05 01:42:57;;;;;;;4.63;2.70;;;;;;;16.17;100.00;99737.50;685357;28;929;-59
2023/07/05 01:43:18;;;;;;;4.63;2.65;;;;;;;16.13;100.00;99735.94;682801;28;4541;-59
2023/07/05 01:43:41;;;;;;;4.37;2.53;;;;;;;16.21;100.00;99733.81;683674;28;1760;-59
2023/07/05 01:44:03;;;;;;;4.82;2.60;;;;;;;16.17;100.00;99733.13;684915;28;861;-59
2023/07/05 01:44:23;;;;;;;5.13;2.50;;;;;;;16.14;100.00;99732.38;684796;28;1659;-59
2023/07/05 01:44:44;;;;;;;5.22;2.78;;;;;;;16.09;100.00;99737.84;685823;28;1429;-59
2023/07/05 01:45:05;;;;;;;4.90;2.70;;;;;;;16.07;100.00;99728.28;688506;28;1053;-59
2023/07/05 01:45:59;;;;;;;4.88;2.58;;;;;;;16.07;100.00;99737.06;686718;28;1732;-58
2023/07/05 01:46:23;;;;;;;4.10;2.50;;;;;;;16.03;100.00;99731.97;685671;28;4298;-59
2023/07/05 01:46:48;;;;;;;4.30;2.80;;;;;;;15.99;100.00;99729.47;688886;28;1584;-59
2023/07/05 01:47:16;;;;;;;4.35;2.50;;;;;;;16.00;100.00;99731.19;690530;28;1981;-58
2023/07/05 01:47:57;;;;;;;4.43;2.47;;;;;;;16.03;100.00;99731.97;689298;28;1570;-60
2023/07/05 01:48:42;;;;;;;4.57;2.38;;;;;;;16.08;100.00;99728.22;689558;28;972;-59
2023/07/05 01:49:17;;;;;;;5.20;2.50;;;;;;;16.10;100.00;99726.41;688622;28;1540;-59
2023/07/05 01:49:52;;;;;;;4.68;2.55;;;;;;;16.06;100.00;99723.94;688173;28;4794;-59
2023/07/05 01:50:34;;;;;;;4.88;2.45;;;;;;;16.04;100.00;99724.00;689356;28;1114;-59
2023/07/05 01:51:00;;;;;;;4.78;2.78;;;;;;;16.05;100.00;99716.94;689965;28;978;-59
2023/07/05 01:51:34;;;;;;;3.95;2.38;;;;;;;16.08;100.00;99712.41;690232;28;1239;-60
2023/07/05 01:52:21;;;;;;;4.70;2.70;;;;;;;16.15;100.00;99707.72;689674;28;991;-59
2023/07/05 01:53:00;;;;;;;4.45;2.63;;;;;;;16.19;100.00;99700.56;686644;28;4782;-60
2023/07/05 01:53:34;;;;;;;5.00;2.50;;;;;;;16.16;100.00;99696.28;692263;28;1298;-59
2023/07/05 01:54:04;;;;;;;5.35;2.42;;;;;;;16.12;100.00;99702.59;693371;28;1488;-59
2023/07/05 01:54:42;;;;;;;5.32;2.67;;;;;;;16.19;100.00;99704.03;692969;28;926;-60
2023/07/05 01:55:10;;;;;;;3.95;2.30;;;;;;;16.19;100.00;99703.19;690708;28;1410;-60
2023/07/05 01:55:41;;;;;;;4.75;2.80;;;;;;;16.14;100.00;99708.66;688667;28;4961;-59
2023/07/05 01:56:07;;;;;;;4.40;2.40;;;;;;;16.15;100.00;99700.66;690677;28;885;-58
2023/07/05 01:56:35;;;;;;;4.32;2.28;;;;;;;16.20;100.00;99695.22;688625;28;993;-59
2023/07/05 01:57:12;;;;;;;4.57;2.33;;;;;;;16.22;100.00;99698.63;689688;28;1721;-60
2023/07/05 01:57:51;;;;;;;4.55;2.30;;;;;;;16.20;100.00;99696.97;689473;28;935;-60
2023/07/05 01:58:18;;;;;;;4.20;2.22;;;;;;;16.20;100.00;99692.59;689601;28;5083;-59
2023/07/05 01:58:44;;;;;;;4.50;2.28;;;;;;;16.13;100.00;99693.75;683582;28;1566;-60
2023/07/05 01:59:08;;;;;;;5.53;2.40;;;;;;;16.13;100.00;99697.25;683809;28;1214;-59
2023/07/05 01:59:37;;;;;;;4.78;2.40;;;;;;;16.09;100.00;99697.44;684653;28;1525;-59
2023/07/05 02:00:05;;;;;;;4.38;2.50;;;;;;;16.16;100.00;99698.91;684912;28;1385;-59
2023/07/05 02:00:31;;;;;;;4.03;2.30;;;;;;;16.13;100.00;99696.38;685476;28;1603;-59
2023/07/05 02:00:52;;;;;;;4.85;2.42;;;;;;;16.09;100.00;99700.06;684884;28;1473;-60
2023/07/05 02:01:15;;;;;;;5.65;2.40;;;;;;;16.07;100.00;99694.03;685237;28;4303;-60
2023/07/05 02:01:37;;;;;;;4.75;2.50;;;;;;;16.07;100.00;99704.56;686632;28;2025;-59